createdAt,value
2017-02-13T00:00:23.405Z,1023.13
2017-02-13T00:01:28.547Z,1023.13
2017-02-13T00:02:33.670Z,1023.14
2017-02-13T00:03:39.764Z,1023.16
2017-02-13T00:04:45.860Z,1023.14
2017-02-13T00:05:50.979Z,1023.2
2017-02-13T00:06:57.122Z,1023.16
2017-02-13T00:08:01.252Z,1023.14
2017-02-13T00:09:06.384Z,1023.09
2017-02-13T00:10:11.480Z,1023.09
2017-02-13T00:11:16.673Z,1023.07
2017-02-13T00:12:21.802Z,1023.08
2017-02-13T00:13:24.992Z,1023.09
2017-02-13T00:14:31.077Z,1023.14
2017-02-13T00:15:36.206Z,1023.11
2017-02-13T00:16:42.310Z,1023.09
2017-02-13T00:17:48.415Z,1023.13
2017-02-13T00:18:53.507Z,1023.21
2017-02-13T00:19:59.604Z,1023.12
2017-02-13T00:21:05.749Z,1023.18
2017-02-13T00:22:11.835Z,1023.16
2017-02-13T00:23:17.921Z,1023.13
2017-02-13T00:24:22.137Z,1023.21
2017-02-13T00:25:27.236Z,1023.3
2017-02-13T00:26:33.335Z,1023.13
2017-02-13T00:27:39.433Z,1023.18
2017-02-13T00:28:43.582Z,1023.19
2017-02-13T00:29:49.672Z,1023.13
2017-02-13T00:30:55.762Z,1023.17
2017-02-13T00:32:00.883Z,1023.16
2017-02-13T00:33:06.993Z,1023.13
2017-02-13T00:34:13.094Z,1023.1
2017-02-13T00:35:19.180Z,1023.08
2017-02-13T00:36:25.285Z,1023.13
2017-02-13T00:37:29.439Z,1023.1
2017-02-13T00:38:35.535Z,1023.11
2017-02-13T00:39:40.656Z,1023.14
2017-02-13T00:40:44.810Z,1023.07
2017-02-13T00:41:50.902Z,1023.16
2017-02-13T00:42:55.995Z,1023.15
2017-02-13T00:44:02.081Z,1023.17
2017-02-13T00:45:08.170Z,1023.13
2017-02-13T00:46:13.303Z,1023.21
2017-02-13T00:47:19.391Z,1023.21
2017-02-13T00:48:24.509Z,1023.15
2017-02-13T00:49:30.601Z,1023.14
2017-02-13T00:50:34.735Z,1023.08
2017-02-13T00:51:37.923Z,1023.15
2017-02-13T00:52:41.086Z,1023.15
2017-02-13T00:53:45.207Z,1023.18
2017-02-13T00:54:50.328Z,1023.16
2017-02-13T00:55:56.546Z,1023.18
2017-02-13T00:57:02.635Z,1023.21
2017-02-13T00:58:07.749Z,1023.18
2017-02-13T00:59:13.842Z,1023.15
2017-02-13T01:00:17.999Z,1023.12
2017-02-13T01:01:24.098Z,1023.16
2017-02-13T01:02:30.190Z,1023.15
2017-02-13T01:03:35.317Z,1023.19
2017-02-13T01:04:40.447Z,1023.22
2017-02-13T01:05:46.538Z,1023.17
2017-02-13T01:06:52.623Z,1023.19
2017-02-13T01:07:57.747Z,1023.19
2017-02-13T01:09:01.900Z,1023.16
2017-02-13T01:10:05.064Z,1023.12
2017-02-13T01:11:11.171Z,1023.16
2017-02-13T01:12:17.266Z,1023.13
2017-02-13T01:13:22.389Z,1023.15
2017-02-13T01:14:26.552Z,1023.14
2017-02-13T01:15:31.691Z,1023.15
2017-02-13T01:16:36.796Z,1023.22
2017-02-13T01:17:42.887Z,1023.19
2017-02-13T01:18:48.963Z,1023.2
2017-02-13T01:19:54.087Z,1023.22
2017-02-13T01:21:00.173Z,1023.2
2017-02-13T01:22:04.322Z,1023.14
2017-02-13T01:23:07.484Z,1023.11
2017-02-13T01:24:11.631Z,1023.13
2017-02-13T01:25:16.728Z,1023.12
2017-02-13T01:26:21.873Z,1023.08
2017-02-13T01:27:26.991Z,1023.15
2017-02-13T01:28:33.078Z,1023.14
2017-02-13T01:29:38.216Z,1023.16
2017-02-13T01:30:44.305Z,1023.15
2017-02-13T01:31:49.403Z,1023.17
2017-02-13T01:32:54.494Z,1023.17
2017-02-13T01:33:59.734Z,1023.16
2017-02-13T01:35:05.819Z,1023.19
2017-02-13T01:36:11.914Z,1023.17
2017-02-13T01:37:17.997Z,1023.2
2017-02-13T01:38:24.077Z,1023.22
2017-02-13T01:39:30.171Z,1023.25
2017-02-13T01:40:36.256Z,1023.23
2017-02-13T01:41:42.353Z,1023.23
2017-02-13T01:42:48.503Z,1023.28
2017-02-13T01:43:54.607Z,1023.29
2017-02-13T01:44:59.730Z,1023.29
2017-02-13T01:46:04.850Z,1023.29
2017-02-13T01:47:10.943Z,1023.21
2017-02-13T01:48:17.031Z,1023.25
2017-02-13T01:49:23.117Z,1023.26
2017-02-13T01:50:28.251Z,1023.28
2017-02-13T01:51:34.358Z,1023.28
2017-02-13T01:52:39.477Z,1023.26
2017-02-13T01:53:45.574Z,1023.23
2017-02-13T01:54:51.658Z,1023.32
2017-02-13T01:55:57.765Z,1023.3
2017-02-13T01:57:03.853Z,1023.33
2017-02-13T01:58:09.939Z,1023.26
2017-02-13T01:59:15.060Z,1023.2
2017-02-13T02:00:21.154Z,1023.2
2017-02-13T02:01:25.308Z,1023.17
2017-02-13T02:02:31.390Z,1023.2
2017-02-13T02:03:35.509Z,1023.21
2017-02-13T02:04:39.701Z,1023.24
2017-02-13T02:05:45.857Z,1023.33
2017-02-13T02:06:50.978Z,1023.2
2017-02-13T02:07:56.094Z,1023.22
2017-02-13T02:09:02.182Z,1023.28
2017-02-13T02:10:07.342Z,1023.22
2017-02-13T02:11:13.439Z,1023.25
2017-02-13T02:12:19.543Z,1023.23
2017-02-13T02:13:25.628Z,1023.2
2017-02-13T02:14:30.722Z,1023.18
2017-02-13T02:15:36.912Z,1023.22
2017-02-13T02:16:43.001Z,1023.23
2017-02-13T02:17:49.094Z,1023.23
2017-02-13T02:18:55.173Z,1023.2
2017-02-13T02:20:01.273Z,1023.19
2017-02-13T02:21:07.351Z,1023.22
2017-02-13T02:22:13.439Z,1023.18
2017-02-13T02:23:18.572Z,1023.21
2017-02-13T02:24:23.664Z,1023.21
2017-02-13T02:25:28.781Z,1023.21
2017-02-13T02:26:32.954Z,1023.19
2017-02-13T02:27:37.078Z,1023.22
2017-02-13T02:28:41.228Z,1023.2
2017-02-13T02:29:47.295Z,1023.2
2017-02-13T02:30:52.466Z,1023.19
2017-02-13T02:31:58.555Z,1023.19
2017-02-13T02:33:03.672Z,1023.16
2017-02-13T02:34:07.799Z,1023.11
2017-02-13T02:35:11.929Z,1023.12
2017-02-13T02:36:17.081Z,1023.17
2017-02-13T02:37:21.231Z,1023.16
2017-02-13T02:38:26.328Z,1023.19
2017-02-13T02:39:32.477Z,1023.19
2017-02-13T02:40:38.569Z,1023.16
2017-02-13T02:41:44.669Z,1023.15
2017-02-13T02:42:49.780Z,1023.16
2017-02-13T02:43:55.845Z,1023.19
2017-02-13T02:45:01.065Z,1023.23
2017-02-13T02:46:06.164Z,1023.28
2017-02-13T02:47:11.269Z,1023.3
2017-02-13T02:48:16.398Z,1023.31
2017-02-13T02:49:22.470Z,1023.32
2017-02-13T02:50:28.562Z,1023.32
2017-02-13T02:51:34.646Z,1023.29
2017-02-13T02:52:40.796Z,1023.3
2017-02-13T02:53:44.981Z,1023.28
2017-02-13T02:54:50.075Z,1023.24
2017-02-13T02:55:56.171Z,1023.22
2017-02-13T02:57:00.314Z,1023.19
2017-02-13T02:58:06.407Z,1023.23
2017-02-13T02:59:10.526Z,1023.21
2017-02-13T03:00:16.611Z,1023.23
2017-02-13T03:01:22.696Z,1023.18
2017-02-13T03:02:27.808Z,1023.24
2017-02-13T03:03:33.898Z,1023.23
2017-02-13T03:04:39.995Z,1023.28
2017-02-13T03:05:46.089Z,1023.26
2017-02-13T03:06:52.178Z,1023.27
2017-02-13T03:07:58.338Z,1023.26
2017-02-13T03:09:02.481Z,1023.27
2017-02-13T03:10:08.624Z,1023.23
2017-02-13T03:11:12.778Z,1023.25
2017-02-13T03:12:18.862Z,1023.26
2017-02-13T03:13:24.958Z,1023.28
2017-02-13T03:14:31.047Z,1023.19
2017-02-13T03:15:35.170Z,1023.19
2017-02-13T03:16:40.296Z,1023.19
2017-02-13T03:17:43.460Z,1023.19
2017-02-13T03:18:49.546Z,1023.21
2017-02-13T03:19:55.685Z,1023.2
2017-02-13T03:21:00.791Z,1023.16
2017-02-13T03:22:05.881Z,1023.2
2017-02-13T03:23:10.980Z,1023.22
2017-02-13T03:24:14.134Z,1023.22
2017-02-13T03:25:20.237Z,1023.22
2017-02-13T03:26:26.322Z,1023.24
2017-02-13T03:27:32.419Z,1023.23
2017-02-13T03:28:37.546Z,1023.23
2017-02-13T03:29:42.674Z,1023.24
2017-02-13T03:30:48.755Z,1023.27
2017-02-13T03:31:53.899Z,1023.26
2017-02-13T03:33:00.005Z,1023.27
2017-02-13T03:34:03.165Z,1023.29
2017-02-13T03:35:08.280Z,1023.27
2017-02-13T03:36:13.379Z,1023.26
2017-02-13T03:37:19.470Z,1023.29
2017-02-13T03:38:25.555Z,1023.3
2017-02-13T03:39:31.631Z,1023.27
2017-02-13T03:40:35.840Z,1023.37
2017-02-13T03:41:41.978Z,1023.38
2017-02-13T03:42:47.100Z,1023.32
2017-02-13T03:43:53.185Z,1023.35
2017-02-13T03:44:59.324Z,1023.33
2017-02-13T03:46:03.471Z,1023.37
2017-02-13T03:47:09.562Z,1023.34
2017-02-13T03:48:15.648Z,1023.34
2017-02-13T03:49:21.748Z,1023.33
2017-02-13T03:50:24.937Z,1023.37
2017-02-13T03:51:30.081Z,1023.39
2017-02-13T03:52:34.221Z,1023.37
2017-02-13T03:53:39.336Z,1023.41
2017-02-13T03:54:45.421Z,1023.4
2017-02-13T03:55:50.572Z,1023.43
2017-02-13T03:56:53.708Z,1023.48
2017-02-13T03:57:59.847Z,1023.46
2017-02-13T03:59:04.965Z,1023.49
2017-02-13T04:00:10.085Z,1023.53
2017-02-13T04:01:14.259Z,1023.57
2017-02-13T04:02:18.389Z,1023.57
2017-02-13T04:03:23.510Z,1023.57
2017-02-13T04:04:27.661Z,1023.54
2017-02-13T04:05:33.780Z,1023.55
2017-02-13T04:06:38.879Z,1023.51
2017-02-13T04:07:43.988Z,1023.54
2017-02-13T04:08:50.058Z,1023.54
2017-02-13T04:09:55.175Z,1023.55
2017-02-13T04:11:00.273Z,1023.6
2017-02-13T04:12:05.445Z,1023.6
2017-02-13T04:13:09.570Z,1023.67
2017-02-13T04:14:13.727Z,1023.67
2017-02-13T04:15:19.810Z,1023.7
2017-02-13T04:16:24.931Z,1023.67
2017-02-13T04:17:30.037Z,1023.64
2017-02-13T04:18:34.158Z,1023.58
2017-02-13T04:19:40.242Z,1023.62
2017-02-13T04:20:46.331Z,1023.53
2017-02-13T04:21:51.476Z,1023.51
2017-02-13T04:22:57.534Z,1023.5
2017-02-13T04:24:03.613Z,1023.51
2017-02-13T04:25:09.778Z,1023.51
2017-02-13T04:26:13.935Z,1023.47
2017-02-13T04:27:19.047Z,1023.46
2017-02-13T04:28:23.186Z,1023.5
2017-02-13T04:29:28.278Z,1023.47
2017-02-13T04:31:34.592Z,1023.56
2017-02-13T04:32:39.812Z,1023.57
2017-02-13T04:33:45.917Z,1023.66
2017-02-13T04:34:51.995Z,1023.69
2017-02-13T04:35:58.095Z,1023.69
2017-02-13T04:37:03.213Z,1023.66
2017-02-13T04:38:08.298Z,1023.68
2017-02-13T04:39:14.427Z,1023.67
2017-02-13T04:40:20.495Z,1023.6
2017-02-13T04:41:26.607Z,1023.58
2017-02-13T04:42:30.767Z,1023.56
2017-02-13T04:43:35.884Z,1023.56
2017-02-13T04:44:41.006Z,1023.64
2017-02-13T04:45:47.192Z,1023.69
2017-02-13T04:46:52.313Z,1023.73
2017-02-13T04:47:57.405Z,1023.71
2017-02-13T04:49:02.522Z,1023.62
2017-02-13T04:50:08.624Z,1023.63
2017-02-13T04:51:13.837Z,1023.61
2017-02-13T04:52:19.927Z,1023.53
2017-02-13T04:53:24.092Z,1023.52
2017-02-13T04:54:29.188Z,1023.56
2017-02-13T04:55:34.283Z,1023.6
2017-02-13T04:56:39.405Z,1023.59
2017-02-13T04:57:44.525Z,1023.57
2017-02-13T04:58:50.615Z,1023.51
2017-02-13T04:59:53.828Z,1023.52
2017-02-13T05:00:58.956Z,1023.48
2017-02-13T05:02:03.071Z,1023.46
2017-02-13T05:03:07.226Z,1023.49
2017-02-13T05:04:13.314Z,1023.4
2017-02-13T05:05:17.465Z,1023.43
2017-02-13T05:06:22.586Z,1023.45
2017-02-13T05:07:28.703Z,1023.43
2017-02-13T05:08:33.805Z,1023.41
2017-02-13T05:09:39.898Z,1023.41
2017-02-13T05:10:43.048Z,1023.41
2017-02-13T05:11:49.243Z,1023.4
2017-02-13T05:12:54.336Z,1023.38
2017-02-13T05:13:58.465Z,1023.43
2017-02-13T05:15:04.551Z,1023.47
2017-02-13T05:16:08.676Z,1023.31
2017-02-13T05:17:13.858Z,1023.37
2017-02-13T05:18:18.951Z,1023.41
2017-02-13T05:19:23.110Z,1023.4
2017-02-13T05:20:28.246Z,1023.4
2017-02-13T05:21:33.366Z,1023.4
2017-02-13T05:22:39.453Z,1023.41
2017-02-13T05:23:45.547Z,1023.34
2017-02-13T05:24:51.641Z,1023.29
2017-02-13T05:25:57.749Z,1023.27
2017-02-13T05:27:01.893Z,1023.36
2017-02-13T05:28:08.005Z,1023.36
2017-02-13T05:29:12.154Z,1023.41
2017-02-13T05:30:16.267Z,1023.42
2017-02-13T05:31:22.411Z,1023.35
2017-02-13T05:32:27.531Z,1023.37
2017-02-13T05:33:33.616Z,1023.29
2017-02-13T05:34:39.702Z,1023.32
2017-02-13T05:35:43.829Z,1023.35
2017-02-13T05:36:48.942Z,1023.32
2017-02-13T05:37:55.141Z,1023.34
2017-02-13T05:39:00.271Z,1023.3
2017-02-13T05:40:05.398Z,1023.28
2017-02-13T05:41:09.538Z,1023.27
2017-02-13T05:42:15.622Z,1023.33
2017-02-13T05:43:21.799Z,1023.34
2017-02-13T05:44:26.913Z,1023.32
2017-02-13T05:45:31.036Z,1023.33
2017-02-13T05:46:36.142Z,1023.27
2017-02-13T05:47:41.233Z,1023.31
2017-02-13T05:48:47.319Z,1023.28
2017-02-13T05:49:51.479Z,1023.29
2017-02-13T05:50:56.610Z,1023.21
2017-02-13T05:52:02.709Z,1023.24
2017-02-13T05:53:07.788Z,1023.23
2017-02-13T05:54:12.911Z,1023.19
2017-02-13T05:55:18.055Z,1023.22
2017-02-13T05:56:24.306Z,1023.21
2017-02-13T05:57:30.403Z,1023.27
2017-02-13T05:58:35.521Z,1023.27
2017-02-13T05:59:40.622Z,1023.31
2017-02-13T06:00:45.779Z,1023.32
2017-02-13T06:01:50.870Z,1023.33
2017-02-13T06:02:55.992Z,1023.33
2017-02-13T06:04:01.112Z,1023.35
2017-02-13T06:05:07.204Z,1023.36
2017-02-13T06:06:13.288Z,1023.33
2017-02-13T06:07:18.412Z,1023.29
2017-02-13T06:08:23.550Z,1023.28
2017-02-13T06:09:28.716Z,1023.28
2017-02-13T06:10:33.782Z,1023.29
2017-02-13T06:11:38.906Z,1023.32
2017-02-13T06:12:43.007Z,1023.31
2017-02-13T06:13:49.090Z,1023.26
2017-02-13T06:14:52.290Z,1023.26
2017-02-13T06:15:57.369Z,1023.3
2017-02-13T06:17:03.459Z,1023.33
2017-02-13T06:18:09.568Z,1023.29
2017-02-13T06:19:15.657Z,1023.3
2017-02-13T06:20:19.819Z,1023.35
2017-02-13T06:21:25.906Z,1023.32
2017-02-13T06:22:31.993Z,1023.31
2017-02-13T06:23:36.121Z,1023.29
2017-02-13T06:24:41.232Z,1023.26
2017-02-13T06:25:47.340Z,1023.28
2017-02-13T06:26:52.464Z,1023.33
2017-02-13T06:27:58.559Z,1023.36
2017-02-13T06:29:03.691Z,1023.33
2017-02-13T06:30:08.803Z,1023.36
2017-02-13T06:31:14.895Z,1023.32
2017-02-13T06:32:20.013Z,1023.34
2017-02-13T06:33:26.115Z,1023.31
2017-02-13T06:34:31.234Z,1023.37
2017-02-13T06:35:37.323Z,1023.38
2017-02-13T06:36:42.416Z,1023.36
2017-02-13T06:37:46.567Z,1023.26
2017-02-13T06:38:49.779Z,1023.34
2017-02-13T06:39:55.869Z,1023.3
2017-02-13T06:41:01.956Z,1023.36
2017-02-13T06:42:08.050Z,1023.24
2017-02-13T06:43:14.147Z,1023.25
2017-02-13T06:44:19.264Z,1023.23
2017-02-13T06:45:25.356Z,1023.24
2017-02-13T06:46:30.444Z,1023.28
2017-02-13T06:47:35.609Z,1023.26
2017-02-13T06:48:39.729Z,1023.26
2017-02-13T06:49:44.861Z,1023.26
2017-02-13T06:50:51.051Z,1023.29
2017-02-13T06:51:57.149Z,1023.34
2017-02-13T06:53:02.278Z,1023.36
2017-02-13T06:54:07.396Z,1023.37
2017-02-13T06:55:12.520Z,1023.41
2017-02-13T06:56:17.641Z,1023.43
2017-02-13T06:57:23.752Z,1023.41
2017-02-13T06:58:29.821Z,1023.43
2017-02-13T06:59:35.976Z,1023.45
2017-02-13T07:00:42.090Z,1023.44
2017-02-13T07:01:47.176Z,1023.47
2017-02-13T07:02:53.258Z,1023.48
2017-02-13T07:03:59.360Z,1023.51
2017-02-13T07:05:03.517Z,1023.48
2017-02-13T07:06:08.669Z,1023.51
2017-02-13T07:07:13.778Z,1023.41
2017-02-13T07:08:19.855Z,1023.47
2017-02-13T07:09:25.066Z,1023.49
2017-02-13T07:10:31.132Z,1023.53
2017-02-13T07:11:36.228Z,1023.56
2017-02-13T07:12:41.403Z,1023.57
2017-02-13T07:13:46.531Z,1023.51
2017-02-13T07:14:52.617Z,1023.53
2017-02-13T07:15:58.709Z,1023.55
2017-02-13T07:17:03.827Z,1023.48
2017-02-13T07:18:09.928Z,1023.49
2017-02-13T07:19:15.060Z,1023.53
2017-02-13T07:20:21.146Z,1023.49
2017-02-13T07:21:27.265Z,1023.5
2017-02-13T07:22:32.426Z,1023.46
2017-02-13T07:23:37.517Z,1023.47
2017-02-13T07:24:42.641Z,1023.47
2017-02-13T07:25:48.747Z,1023.48
2017-02-13T07:26:53.895Z,1023.45
2017-02-13T07:27:59.031Z,1023.48
2017-02-13T07:29:04.157Z,1023.47
2017-02-13T07:30:10.245Z,1023.42
2017-02-13T07:31:16.340Z,1023.46
2017-02-13T07:32:22.428Z,1023.45
2017-02-13T07:33:26.583Z,1023.43
2017-02-13T07:34:32.675Z,1023.43
2017-02-13T07:35:37.784Z,1023.38
2017-02-13T07:36:42.909Z,1023.51
2017-02-13T07:37:47.060Z,1023.49
2017-02-13T07:38:53.157Z,1023.41
2017-02-13T07:39:58.279Z,1023.63
2017-02-13T07:41:04.373Z,1023.41
2017-02-13T07:42:09.468Z,1023.42
2017-02-13T07:43:13.598Z,1023.46
2017-02-13T07:44:18.736Z,1023.41
2017-02-13T07:45:43.628Z,1023.46
2017-02-13T07:46:30.078Z,1023.43
2017-02-13T07:47:36.147Z,1023.49
2017-02-13T07:48:41.273Z,1023.46
2017-02-13T07:49:47.370Z,1023.44
2017-02-13T07:50:51.536Z,1023.48
2017-02-13T07:51:57.632Z,1023.4
2017-02-13T07:53:02.756Z,1023.38
2017-02-13T07:54:06.055Z,1023.4
2017-02-13T07:55:10.260Z,1023.41
2017-02-13T07:56:16.349Z,1023.43
2017-02-13T07:57:21.478Z,1023.46
2017-02-13T07:58:27.576Z,1023.44
2017-02-13T07:59:32.694Z,1023.4
2017-02-13T08:00:38.775Z,1023.39
2017-02-13T08:01:43.903Z,1023.44
2017-02-13T08:02:49.009Z,1023.55
2017-02-13T08:03:52.201Z,1023.42
2017-02-13T08:04:58.312Z,1023.5
2017-02-13T08:06:03.458Z,1023.5
2017-02-13T08:07:07.618Z,1023.47
2017-02-13T08:08:11.774Z,1023.56
2017-02-13T08:09:15.938Z,1023.56
2017-02-13T08:10:21.037Z,1023.57
2017-02-13T08:11:27.134Z,1023.46
2017-02-13T08:12:31.252Z,1023.54
2017-02-13T08:13:35.415Z,1023.49
2017-02-13T08:14:41.513Z,1023.51
2017-02-13T08:15:47.615Z,1023.45
2017-02-13T08:16:52.739Z,1023.45
2017-02-13T08:17:55.927Z,1023.51
2017-02-13T08:19:01.084Z,1023.51
2017-02-13T08:20:07.298Z,1023.49
2017-02-13T08:21:13.401Z,1023.49
2017-02-13T08:22:19.489Z,1023.57
2017-02-13T08:23:24.596Z,1023.51
2017-02-13T08:24:30.704Z,1023.43
2017-02-13T08:25:36.804Z,1023.43
2017-02-13T08:26:42.927Z,1023.44
2017-02-13T08:27:48.033Z,1023.4
2017-02-13T08:28:53.145Z,1023.49
2017-02-13T08:29:59.244Z,1023.47
2017-02-13T08:31:05.343Z,1023.52
2017-02-13T08:32:11.431Z,1023.55
2017-02-13T08:33:16.543Z,1023.54
2017-02-13T08:34:22.640Z,1023.53
2017-02-13T08:35:27.769Z,1023.51
2017-02-13T08:36:33.865Z,1023.59
2017-02-13T08:37:39.999Z,1023.47
2017-02-13T08:38:46.103Z,1023.44
2017-02-13T08:39:52.204Z,1023.48
2017-02-13T08:40:57.314Z,1023.49
2017-02-13T08:42:02.414Z,1023.49
2017-02-13T08:43:08.541Z,1023.51
2017-02-13T08:44:14.646Z,1023.51
2017-02-13T08:45:20.770Z,1023.41
2017-02-13T08:46:25.879Z,1023.43
2017-02-13T08:47:30.227Z,1023.49
2017-02-13T08:48:36.386Z,1023.45
2017-02-13T08:49:42.490Z,1023.57
2017-02-13T08:50:48.583Z,1023.53
2017-02-13T08:51:52.746Z,1023.53
2017-02-13T08:52:57.886Z,1023.54
2017-02-13T08:54:03.013Z,1023.53
2017-02-13T08:55:09.112Z,1023.55
2017-02-13T08:56:15.222Z,1023.53
2017-02-13T08:57:21.320Z,1023.53
2017-02-13T08:58:26.455Z,1023.55
2017-02-13T08:59:30.776Z,1023.49
2017-02-13T09:00:35.809Z,1023.44
2017-02-13T09:01:40.967Z,1023.39
2017-02-13T09:02:47.075Z,1023.34
2017-02-13T09:03:53.186Z,1023.47
2017-02-13T09:04:58.319Z,1023.38
2017-02-13T09:06:04.429Z,1023.4
2017-02-13T09:07:09.636Z,1023.44
2017-02-13T09:08:14.768Z,1023.49
2017-02-13T09:09:20.921Z,1023.41
2017-02-13T09:10:26.015Z,1023.52
2017-02-13T09:11:31.147Z,1023.5
2017-02-13T09:12:37.253Z,1023.52
2017-02-13T09:13:43.358Z,1023.49
2017-02-13T09:14:49.468Z,1023.5
2017-02-13T09:15:54.669Z,1023.56
2017-02-13T09:16:59.801Z,1023.56
2017-02-13T09:18:04.945Z,1023.56
2017-02-13T09:19:11.043Z,1023.54
2017-02-13T09:20:16.237Z,1023.51
2017-02-13T09:21:21.375Z,1023.47
2017-02-13T09:22:27.473Z,1023.54
2017-02-13T09:23:33.569Z,1023.41
2017-02-13T09:24:39.669Z,1023.51
2017-02-13T09:25:43.829Z,1023.42
2017-02-13T09:26:48.944Z,1023.42
2017-02-13T09:27:53.082Z,1023.48
2017-02-13T09:28:58.210Z,1023.52
2017-02-13T09:30:03.336Z,1023.44
2017-02-13T09:31:08.476Z,1023.42
2017-02-13T09:32:14.600Z,1023.5
2017-02-13T09:33:19.683Z,1023.44
2017-02-13T09:34:24.812Z,1023.5
2017-02-13T09:35:29.949Z,1023.61
2017-02-13T09:36:36.042Z,1023.55
2017-02-13T09:37:42.148Z,1023.51
2017-02-13T09:38:47.289Z,1023.5
2017-02-13T09:39:51.560Z,1023.59
2017-02-13T09:40:56.709Z,1023.47
2017-02-13T09:42:02.794Z,1023.4
2017-02-13T09:43:07.929Z,1023.37
2017-02-13T09:44:12.098Z,1023.46
2017-02-13T09:45:17.202Z,1023.56
2017-02-13T09:46:20.367Z,1023.46
2017-02-13T09:47:25.504Z,1023.45
2017-02-13T09:48:31.607Z,1023.38
2017-02-13T09:49:35.780Z,1023.4
2017-02-13T09:50:39.941Z,1023.52
2017-02-13T09:51:44.107Z,1023.5
2017-02-13T09:52:50.210Z,1023.43
2017-02-13T09:53:54.398Z,1023.47
2017-02-13T09:55:00.520Z,1023.47
2017-02-13T09:56:06.604Z,1023.49
2017-02-13T09:57:08.811Z,1023.54
2017-02-13T09:58:12.952Z,1023.61
2017-02-13T09:59:19.085Z,1023.56
2017-02-13T10:00:25.163Z,1023.64
2017-02-13T10:01:30.309Z,1023.51
2017-02-13T10:02:36.419Z,1023.46
2017-02-13T10:03:39.586Z,1023.47
2017-02-13T10:04:45.721Z,1023.5
2017-02-13T10:05:51.838Z,1023.38
2017-02-13T10:06:56.019Z,1023.55
2017-02-13T10:08:01.170Z,1023.52
2017-02-13T10:09:07.254Z,1023.47
2017-02-13T10:10:13.357Z,1023.67
2017-02-13T10:11:18.494Z,1023.46
2017-02-13T10:12:24.610Z,1023.54
2017-02-13T10:13:28.735Z,1023.55
2017-02-13T10:14:34.880Z,1023.61
2017-02-13T10:15:40.039Z,1023.53
2017-02-13T10:16:45.159Z,1023.48
2017-02-13T10:17:50.297Z,1023.49
2017-02-13T10:18:55.405Z,1023.47
2017-02-13T10:20:00.547Z,1023.5
2017-02-13T10:21:06.651Z,1023.53
2017-02-13T10:22:11.756Z,1023.58
2017-02-13T10:23:16.891Z,1023.5
2017-02-13T10:24:22.033Z,1023.5
2017-02-13T10:25:28.210Z,1023.53
2017-02-13T10:26:34.328Z,1023.58
2017-02-13T10:27:39.462Z,1023.54
2017-02-13T10:28:45.639Z,1023.54
2017-02-13T10:29:50.761Z,1023.45
2017-02-13T10:30:56.909Z,1023.4
2017-02-13T10:32:03.010Z,1023.51
2017-02-13T10:33:09.124Z,1023.43
2017-02-13T10:34:14.258Z,1023.45
2017-02-13T10:35:19.417Z,1023.37
2017-02-13T10:36:25.515Z,1023.39
2017-02-13T10:37:31.613Z,1023.41
2017-02-13T10:38:37.794Z,1023.42
2017-02-13T10:39:42.902Z,1023.45
2017-02-13T10:40:48.014Z,1023.49
2017-02-13T10:41:53.148Z,1023.39
2017-02-13T10:42:58.336Z,1023.47
2017-02-13T10:44:04.448Z,1023.45
2017-02-13T10:45:10.557Z,1023.48
2017-02-13T10:46:16.659Z,1023.48
2017-02-13T10:47:21.785Z,1023.45
2017-02-13T10:48:27.034Z,1023.37
2017-02-13T10:49:33.137Z,1023.33
2017-02-13T10:50:38.275Z,1023.38
2017-02-13T10:51:43.415Z,1023.4
2017-02-13T10:52:47.597Z,1023.44
2017-02-13T10:53:53.682Z,1023.3
2017-02-13T10:54:59.789Z,1023.39
2017-02-13T10:56:05.890Z,1023.4
2017-02-13T10:57:11.047Z,1023.3
2017-02-13T10:58:17.156Z,1023.3
2017-02-13T10:59:22.286Z,1023.32
2017-02-13T11:00:27.420Z,1023.27
2017-02-13T11:01:33.519Z,1023.22
2017-02-13T11:02:37.643Z,1023.3
2017-02-13T11:03:42.783Z,1023.29
2017-02-13T11:04:45.982Z,1023.27
2017-02-13T11:05:52.076Z,1023.27
2017-02-13T11:06:58.207Z,1023.34
2017-02-13T11:08:04.350Z,1023.23
2017-02-13T11:09:10.527Z,1023.27
2017-02-13T11:10:15.659Z,1023.12
2017-02-13T11:11:20.755Z,1023.15
2017-02-13T11:12:25.885Z,1023.19
2017-02-13T11:13:29.085Z,1023.17
2017-02-13T11:14:34.222Z,1023.15
2017-02-13T11:15:38.391Z,1023.15
2017-02-13T11:16:44.493Z,1023.17
2017-02-13T11:17:49.622Z,1023.15
2017-02-13T11:18:54.810Z,1023.11
2017-02-13T11:20:00.872Z,1023.19
2017-02-13T11:21:04.080Z,1023.18
2017-02-13T11:22:10.281Z,1023.17
2017-02-13T11:23:16.378Z,1023.02
2017-02-13T11:24:21.505Z,1023.15
2017-02-13T11:25:25.642Z,1023.17
2017-02-13T11:26:30.776Z,1023.15
2017-02-13T11:27:36.888Z,1023.11
2017-02-13T11:28:42.984Z,1023.13
2017-02-13T11:29:46.204Z,1023.18
2017-02-13T11:30:52.299Z,1023.03
2017-02-13T11:31:58.414Z,1023.21
2017-02-13T11:33:03.539Z,1023.3
2017-02-13T11:34:09.643Z,1023.09
2017-02-13T11:35:14.767Z,1023.14
2017-02-13T11:36:20.869Z,1023.29
2017-02-13T11:37:27.055Z,1023.18
2017-02-13T11:38:32.092Z,1023.15
2017-02-13T11:39:37.196Z,1023.16
2017-02-13T11:40:43.285Z,1023.1
2017-02-13T11:42:52.575Z,1023.22
2017-02-13T11:43:57.700Z,1023.11
2017-02-13T11:45:02.828Z,1023.23
2017-02-13T11:46:07.932Z,1023.07
2017-02-13T11:47:13.028Z,1023.12
2017-02-13T11:48:18.159Z,1023
2017-02-13T11:49:24.271Z,1023.04
2017-02-13T11:50:30.367Z,1023.1
2017-02-13T11:51:33.532Z,1023.11
2017-02-13T11:52:39.632Z,1023.13
2017-02-13T11:53:45.721Z,1023.07
2017-02-13T11:54:49.880Z,1023.11
2017-02-13T11:55:55.015Z,1023.14
2017-02-13T11:57:00.117Z,1023.07
2017-02-13T11:58:05.247Z,1022.91
2017-02-13T11:59:11.341Z,1022.99
2017-02-13T12:00:16.472Z,1023.02
2017-02-13T12:01:22.563Z,1023.09
2017-02-13T12:02:27.675Z,1023.07
2017-02-13T12:03:32.798Z,1022.92
2017-02-13T12:04:36.966Z,1022.93
2017-02-13T12:05:43.055Z,1023.01
2017-02-13T12:06:49.169Z,1023.07
2017-02-13T12:07:55.258Z,1022.92
2017-02-13T12:09:01.350Z,1022.8
2017-02-13T12:10:07.475Z,1022.94
2017-02-13T12:11:13.552Z,1023.02
2017-02-13T12:12:19.644Z,1022.87
2017-02-13T12:13:24.770Z,1022.8
2017-02-13T12:14:29.926Z,1022.79
2017-02-13T12:15:34.093Z,1022.82
2017-02-13T12:16:40.193Z,1023
2017-02-13T12:17:46.299Z,1022.72
2017-02-13T12:18:51.390Z,1022.8
2017-02-13T12:19:56.518Z,1022.73
2017-02-13T12:21:00.652Z,1022.88
2017-02-13T12:22:05.785Z,1022.79
2017-02-13T12:23:10.908Z,1022.92
2017-02-13T12:24:17.005Z,1023.04
2017-02-13T12:25:21.138Z,1022.64
2017-02-13T12:26:26.287Z,1022.53
2017-02-13T12:27:32.384Z,1022.61
2017-02-13T12:28:37.503Z,1022.56
2017-02-13T12:29:42.637Z,1022.56
2017-02-13T12:30:47.747Z,1022.65
2017-02-13T12:31:52.880Z,1022.65
2017-02-13T12:32:57.032Z,1022.79
2017-02-13T12:34:02.166Z,1022.57
2017-02-13T12:35:07.287Z,1022.47
2017-02-13T12:36:11.447Z,1022.57
2017-02-13T12:37:17.564Z,1022.63
2017-02-13T12:38:22.703Z,1022.53
2017-02-13T12:39:28.797Z,1022.94
2017-02-13T12:40:33.951Z,1022.68
2017-02-13T12:41:40.093Z,1022.63
2017-02-13T12:42:46.204Z,1022.71
2017-02-13T12:43:52.301Z,1022.7
2017-02-13T12:45:31.447Z,1022.76
2017-02-13T12:46:04.504Z,1022.74
2017-02-13T12:47:10.595Z,1022.84
2017-02-13T12:48:15.721Z,1022.91
2017-02-13T12:49:21.829Z,1022.83
2017-02-13T12:50:26.956Z,1022.78
2017-02-13T12:51:33.120Z,1022.98
2017-02-13T12:52:39.210Z,1022.76
2017-02-13T12:53:45.312Z,1022.87
2017-02-13T12:54:49.469Z,1022.77
2017-02-13T12:55:55.571Z,1022.83
2017-02-13T12:56:59.705Z,1022.75
2017-02-13T12:58:04.805Z,1022.73
2017-02-13T12:59:09.988Z,1022.64
2017-02-13T13:00:15.107Z,1022.6
2017-02-13T13:01:21.228Z,1022.64
2017-02-13T13:02:26.339Z,1022.76
2017-02-13T13:03:32.447Z,1022.84
2017-02-13T13:04:38.545Z,1022.66
2017-02-13T13:05:44.646Z,1022.75
2017-02-13T13:06:48.815Z,1022.66
2017-02-13T13:07:54.912Z,1022.85
2017-02-13T13:08:59.054Z,1022.55
2017-02-13T13:10:05.170Z,1022.7
2017-02-13T13:11:09.285Z,1022.66
2017-02-13T13:12:15.380Z,1022.67
2017-02-13T13:13:21.488Z,1022.69
2017-02-13T13:14:26.628Z,1022.67
2017-02-13T13:15:31.745Z,1022.73